createdAt,value
2023-09-10T00:00:46.831Z,20.02
2023-09-10T00:03:13.761Z,20.04
2023-09-10T00:05:40.659Z,20.11
2023-09-10T00:08:07.366Z,20.08
2023-09-10T00:10:36.219Z,19.97
2023-09-10T00:13:03.371Z,19.83
2023-09-10T00:15:33.860Z,19.80
2023-09-10T00:18:01.223Z,19.77
2023-09-10T00:20:30.443Z,19.79
2023-09-10T00:22:57.772Z,19.77
2023-09-10T00:25:26.379Z,19.58
2023-09-10T00:27:55.243Z,19.44
2023-09-10T00:30:21.881Z,19.37
2023-09-10T00:32:48.642Z,19.46
2023-09-10T00:35:20.606Z,19.58
2023-09-10T00:37:50.704Z,19.46
2023-09-10T00:40:17.495Z,19.29
2023-09-10T00:42:44.491Z,19.23
2023-09-10T00:45:12.740Z,19.19
2023-09-10T00:47:44.363Z,19.30
2023-09-10T00:50:12.013Z,19.38
2023-09-10T00:52:48.000Z,19.34
2023-09-10T00:55:18.738Z,19.27
2023-09-10T00:57:46.023Z,19.23
2023-09-10T01:00:21.485Z,19.30
2023-09-10T01:02:52.029Z,19.22
2023-09-10T01:05:19.139Z,19.29
2023-09-10T01:07:50.932Z,19.27
2023-09-10T01:10:18.087Z,19.22
2023-09-10T01:13:09.224Z,19.13
2023-09-10T01:16:03.711Z,19.10
2023-09-10T01:18:48.031Z,19.09
2023-09-10T01:21:44.656Z,19.07
2023-09-10T01:24:43.270Z,19.15
2023-09-10T01:27:10.170Z,19.14
2023-09-10T01:29:36.830Z,19.22
2023-09-10T01:32:06.888Z,19.06
2023-09-10T01:34:47.838Z,18.96
2023-09-10T01:37:24.865Z,18.66
2023-09-10T01:39:55.536Z,18.70
2023-09-10T01:42:24.592Z,18.71
2023-09-10T01:44:52.452Z,18.58
2023-09-10T01:47:19.474Z,18.75
2023-09-10T01:49:46.513Z,18.61
2023-09-10T01:52:13.345Z,18.60
2023-09-10T01:54:40.164Z,18.49
2023-09-10T01:57:07.368Z,18.53
2023-09-10T01:59:36.569Z,18.51
2023-09-10T02:02:03.856Z,18.50
2023-09-10T02:04:30.625Z,18.49
2023-09-10T02:06:57.343Z,18.35
2023-09-10T02:09:23.987Z,18.35
2023-09-10T02:11:51.817Z,18.32
2023-09-10T02:14:18.568Z,18.22
2023-09-10T02:16:45.307Z,18.27
2023-09-10T02:19:12.193Z,18.38
2023-09-10T02:21:39.256Z,18.39
2023-09-10T02:24:06.361Z,18.50
2023-09-10T02:26:33.086Z,18.47
2023-09-10T02:29:00.023Z,18.42
2023-09-10T02:31:29.913Z,18.36
2023-09-10T02:33:56.603Z,18.16
2023-09-10T02:36:26.347Z,18.12
2023-09-10T02:38:53.372Z,18.26
2023-09-10T02:41:21.263Z,18.33
2023-09-10T02:43:49.174Z,18.48
2023-09-10T02:46:18.953Z,18.52
2023-09-10T02:48:45.746Z,18.52
2023-09-10T02:51:15.325Z,18.45
2023-09-10T02:53:42.266Z,18.23
2023-09-10T02:56:10.784Z,18.14
2023-09-10T02:58:38.015Z,18.21
2023-09-10T03:01:06.356Z,18.35
2023-09-10T03:03:34.653Z,18.39
2023-09-10T03:06:03.487Z,18.43
2023-09-10T03:08:30.309Z,18.29
2023-09-10T03:10:57.006Z,18.17
2023-09-10T03:13:23.723Z,18.17
2023-09-10T03:15:50.406Z,18.22
2023-09-10T03:18:17.104Z,18.33
2023-09-10T03:20:50.252Z,18.35
2023-09-10T03:23:17.040Z,18.35
2023-09-10T03:25:46.772Z,18.24
2023-09-10T03:28:13.438Z,18.26
2023-09-10T03:30:40.110Z,18.31
2023-09-10T03:33:06.884Z,18.36
2023-09-10T03:35:33.753Z,18.23
2023-09-10T03:38:04.611Z,18.21
2023-09-10T03:40:31.875Z,18.23
2023-09-10T03:43:01.255Z,18.19
2023-09-10T03:45:27.968Z,18.10
2023-09-10T03:47:55.196Z,18.05
2023-09-10T03:50:21.992Z,18.03
2023-09-10T03:52:48.687Z,17.92
2023-09-10T03:55:15.432Z,17.83
2023-09-10T03:57:47.469Z,17.69
2023-09-10T04:00:15.510Z,17.61
2023-09-10T04:02:44.591Z,17.61
2023-09-10T04:05:17.313Z,17.76
2023-09-10T04:07:46.170Z,17.74
2023-09-10T04:10:12.898Z,17.82
2023-09-10T04:12:42.823Z,17.69
2023-09-10T04:15:13.120Z,17.61
2023-09-10T04:17:40.071Z,17.60
2023-09-10T04:20:10.084Z,17.72
2023-09-10T04:22:41.963Z,17.77
2023-09-10T04:25:14.400Z,17.66
2023-09-10T04:27:42.056Z,17.70
2023-09-10T04:30:13.190Z,17.62
2023-09-10T04:32:39.956Z,17.73
2023-09-10T04:35:09.980Z,17.69
2023-09-10T04:37:37.380Z,17.69
2023-09-10T04:40:06.117Z,17.78
2023-09-10T04:42:34.702Z,17.96
2023-09-10T04:45:01.564Z,17.94
2023-09-10T04:47:28.570Z,17.88
2023-09-10T04:49:55.799Z,17.81
2023-09-10T04:52:22.656Z,17.94
2023-09-10T04:54:52.729Z,17.93
2023-09-10T04:57:20.997Z,17.94
2023-09-10T04:59:50.291Z,17.96
2023-09-10T05:02:22.366Z,18.02
2023-09-10T05:04:50.668Z,18.00
2023-09-10T05:07:17.352Z,17.93
2023-09-10T05:09:46.910Z,17.94
2023-09-10T05:12:13.660Z,18.23
2023-09-10T05:14:43.826Z,18.17
2023-09-10T05:17:10.853Z,18.07
2023-09-10T05:19:39.825Z,18.22
2023-09-10T05:22:06.612Z,18.34
2023-09-10T05:24:33.358Z,18.74
2023-09-10T05:27:00.051Z,18.72
2023-09-10T05:29:31.596Z,18.88
2023-09-10T05:32:00.529Z,19.21
2023-09-10T05:34:27.314Z,19.28
2023-09-10T05:36:53.986Z,19.42
2023-09-10T05:39:20.775Z,19.55
2023-09-10T05:41:47.518Z,19.89
2023-09-10T05:44:20.950Z,19.75
2023-09-10T05:46:48.199Z,19.67
2023-09-10T05:49:14.905Z,19.74
2023-09-10T05:51:53.581Z,19.87
2023-09-10T05:54:20.339Z,19.94
2023-09-10T05:56:47.194Z,20.21
2023-09-10T05:59:14.056Z,20.13
2023-09-10T06:01:40.950Z,20.18
2023-09-10T06:04:08.830Z,20.40
2023-09-10T06:06:35.555Z,20.65
2023-09-10T06:09:02.519Z,20.77
2023-09-10T06:11:34.916Z,20.98
2023-09-10T06:14:01.818Z,21.00
2023-09-10T06:16:29.736Z,20.97
2023-09-10T06:18:56.612Z,21.23
2023-09-10T06:21:25.453Z,21.42
2023-09-10T06:23:52.115Z,21.65
2023-09-10T06:26:19.063Z,21.58
2023-09-10T06:28:46.433Z,21.91
2023-09-10T06:31:13.510Z,22.09
2023-09-10T06:33:40.241Z,22.23
2023-09-10T06:36:07.372Z,22.28
2023-09-10T06:38:34.235Z,22.54
2023-09-10T06:41:04.779Z,22.75
2023-09-10T06:43:33.169Z,23.01
2023-09-10T06:45:59.934Z,23.03
2023-09-10T06:48:26.605Z,23.16
2023-09-10T06:50:53.286Z,23.25
2023-09-10T06:53:19.999Z,23.40
2023-09-10T06:55:46.822Z,23.40
2023-09-10T06:58:13.707Z,23.87
2023-09-10T07:00:40.537Z,24.09
2023-09-10T07:03:10.276Z,24.38
2023-09-10T07:08:06.233Z,24.84
2023-09-10T07:10:33.526Z,24.65
2023-09-10T07:13:02.982Z,24.83
2023-09-10T07:15:29.802Z,25.13
2023-09-10T07:17:56.833Z,25.35
2023-09-10T07:20:24.048Z,25.58
2023-09-10T07:22:50.996Z,25.72
2023-09-10T07:25:17.897Z,25.89
2023-09-10T07:27:44.563Z,25.89
2023-09-10T07:30:11.766Z,25.75
2023-09-10T07:32:41.814Z,25.89
2023-09-10T07:35:10.431Z,25.84
2023-09-10T07:37:37.130Z,25.84
2023-09-10T07:40:04.185Z,25.89
2023-09-10T07:42:40.008Z,25.98
2023-09-10T07:45:10.503Z,26.09
2023-09-10T07:47:37.301Z,26.00
2023-09-10T07:50:04.240Z,25.90
2023-09-10T07:52:30.918Z,25.88
2023-09-10T07:55:00.983Z,26.09
2023-09-10T07:57:27.687Z,26.32
2023-09-10T07:59:57.581Z,26.53
2023-09-10T08:02:31.293Z,26.61
2023-09-10T08:04:58.437Z,26.51
2023-09-10T08:07:25.226Z,26.65
2023-09-10T08:09:54.921Z,26.68
2023-09-10T08:12:23.755Z,26.75
2023-09-10T08:15:04.182Z,26.73
2023-09-10T08:17:33.407Z,26.75
2023-09-10T08:20:02.113Z,26.77
2023-09-10T08:22:28.863Z,26.79
2023-09-10T08:24:55.674Z,26.83
2023-09-10T08:27:23.997Z,26.82
2023-09-10T08:29:50.967Z,26.88
2023-09-10T08:32:17.992Z,27.03
2023-09-10T08:34:44.838Z,27.29
2023-09-10T08:37:11.495Z,27.42
2023-09-10T08:39:38.945Z,27.40
2023-09-10T08:42:33.820Z,27.37
2023-09-10T08:45:07.169Z,27.53
2023-09-10T08:47:41.017Z,27.46
2023-09-10T08:50:12.741Z,27.58
2023-09-10T08:52:43.208Z,27.55
2023-09-10T08:55:22.462Z,27.49
2023-09-10T08:57:51.791Z,27.73
2023-09-10T09:00:20.008Z,27.88
2023-09-10T09:02:47.711Z,28.15
2023-09-10T09:05:16.141Z,28.04
2023-09-10T09:07:56.955Z,28.30
2023-09-10T09:10:26.754Z,28.88
2023-09-10T09:12:58.235Z,29.11
2023-09-10T09:15:26.457Z,29.23
2023-09-10T09:17:57.924Z,29.19
2023-09-10T09:20:26.229Z,29.65
2023-09-10T09:23:03.978Z,29.56
2023-09-10T09:25:32.275Z,29.36
2023-09-10T09:28:01.758Z,29.48
2023-09-10T09:30:30.465Z,29.63
2023-09-10T09:32:57.828Z,29.62
2023-09-10T09:35:26.357Z,29.43
2023-09-10T09:37:54.383Z,29.47
2023-09-10T09:40:21.720Z,29.11
2023-09-10T09:42:51.976Z,28.94
2023-09-10T09:45:21.894Z,29.05
2023-09-10T09:47:48.768Z,29.20
2023-09-10T09:50:16.180Z,29.51
2023-09-10T09:52:44.985Z,29.71
2023-09-10T09:55:13.178Z,29.90
2023-09-10T09:57:39.975Z,29.75
2023-09-10T10:00:09.198Z,29.55
2023-09-10T10:02:36.135Z,29.58
2023-09-10T10:05:03.551Z,29.73
2023-09-10T10:07:42.082Z,29.46
2023-09-10T10:10:20.297Z,29.73
2023-09-10T10:12:55.639Z,30.53
2023-09-10T10:15:24.034Z,30.66
2023-09-10T10:17:53.400Z,30.69
2023-09-10T10:20:22.074Z,30.83
2023-09-10T10:22:49.832Z,30.28
2023-09-10T10:25:16.714Z,30.28
2023-09-10T10:27:44.236Z,30.12
2023-09-10T10:30:11.503Z,29.86
2023-09-10T10:32:43.585Z,29.77
2023-09-10T10:35:11.152Z,29.78
2023-09-10T10:37:53.334Z,29.36
2023-09-10T10:40:32.323Z,29.33
2023-09-10T10:43:14.231Z,29.22
2023-09-10T10:45:46.324Z,29.26
2023-09-10T10:48:20.724Z,29.29
2023-09-10T10:50:50.438Z,29.14
2023-09-10T10:53:28.534Z,29.33
2023-09-10T10:55:57.618Z,29.19
2023-09-10T10:58:26.091Z,28.80
2023-09-10T11:00:55.007Z,29.04
2023-09-10T11:03:26.048Z,28.93
2023-09-10T11:05:55.872Z,28.87
2023-09-10T11:08:26.310Z,28.99
2023-09-10T11:10:58.600Z,29.10
2023-09-10T11:13:26.621Z,29.18
2023-09-10T11:16:08.640Z,29.12
2023-09-10T11:18:41.922Z,28.89
2023-09-10T11:21:08.554Z,29.00
2023-09-10T11:23:38.402Z,29.04
2023-09-10T11:26:17.402Z,28.99
2023-09-10T11:28:49.494Z,29.10
2023-09-10T11:31:34.468Z,29.21
2023-09-10T11:34:16.273Z,29.12
2023-09-10T11:36:50.978Z,29.06
2023-09-10T11:39:19.234Z,29.02
2023-09-10T11:41:58.552Z,29.01
2023-09-10T11:44:25.729Z,29.01
2023-09-10T11:46:53.504Z,29.02
2023-09-10T11:49:21.897Z,29.05
2023-09-10T11:51:57.026Z,28.49
2023-09-10T11:54:24.061Z,28.69
2023-09-10T11:56:53.186Z,28.52
2023-09-10T11:59:23.316Z,28.66
2023-09-10T12:01:50.424Z,28.77
2023-09-10T12:04:19.443Z,28.69
2023-09-10T12:06:46.671Z,28.74
2023-09-10T12:09:13.488Z,28.81
2023-09-10T12:11:41.147Z,28.81
2023-09-10T12:14:08.369Z,28.76
2023-09-10T12:16:35.259Z,28.72
2023-09-10T12:19:06.220Z,28.74
2023-09-10T12:21:44.942Z,28.68
2023-09-10T12:24:12.887Z,28.75
2023-09-10T12:26:44.020Z,28.85
2023-09-10T12:29:15.235Z,28.80
2023-09-10T12:31:46.393Z,28.83
2023-09-10T12:34:14.714Z,28.90
2023-09-10T12:36:44.749Z,28.87
2023-09-10T12:39:25.398Z,28.75
2023-09-10T12:41:54.878Z,28.71
2023-09-10T12:44:25.331Z,28.76
2023-09-10T12:46:53.586Z,28.69
2023-09-10T12:49:21.260Z,28.52
2023-09-10T12:51:48.941Z,28.52
2023-09-10T12:54:16.301Z,28.54
2023-09-10T12:56:43.019Z,28.61
2023-09-10T12:59:10.108Z,28.48
2023-09-10T13:01:40.771Z,28.67
2023-09-10T13:04:08.459Z,28.73
2023-09-10T13:06:35.411Z,28.65
2023-09-10T13:09:04.189Z,28.73
2023-09-10T13:11:31.210Z,28.83
2023-09-10T13:14:03.219Z,28.86
2023-09-10T13:16:30.865Z,28.96
2023-09-10T13:18:57.779Z,28.99
2023-09-10T13:21:24.655Z,28.98
2023-09-10T13:23:51.595Z,28.91
2023-09-10T13:26:18.478Z,28.90
2023-09-10T13:28:45.275Z,28.77
2023-09-10T13:31:12.005Z,28.70
2023-09-10T13:33:38.926Z,28.64
2023-09-10T13:36:06.404Z,28.70
2023-09-10T13:38:33.149Z,28.81
2023-09-10T13:40:59.928Z,28.80
2023-09-10T13:43:30.998Z,28.85
2023-09-10T13:45:58.043Z,28.67
2023-09-10T13:48:24.974Z,28.74
2023-09-10T13:50:52.532Z,28.80
2023-09-10T13:53:19.450Z,28.80
2023-09-10T13:55:46.374Z,28.73
2023-09-10T13:58:13.061Z,28.78
2023-09-10T14:00:39.793Z,28.75
2023-09-10T14:03:06.695Z,28.75
2023-09-10T14:05:33.703Z,28.70
2023-09-10T14:08:00.473Z,28.75
2023-09-10T14:10:27.190Z,28.79
2023-09-10T14:12:53.984Z,28.75
2023-09-10T14:15:21.425Z,28.52
2023-09-10T14:17:48.354Z,28.67
2023-09-10T14:20:15.366Z,28.79
2023-09-10T14:22:42.102Z,28.81
2023-09-10T14:25:09.237Z,28.67
2023-09-10T14:27:35.967Z,28.75
2023-09-10T14:30:02.753Z,28.78
2023-09-10T14:32:29.593Z,28.76
2023-09-10T14:34:56.465Z,28.69
2023-09-10T14:37:23.147Z,28.67
2023-09-10T14:39:52.878Z,28.65
2023-09-10T14:42:19.632Z,28.59
2023-09-10T14:44:46.386Z,28.55
2023-09-10T14:47:13.149Z,28.56
2023-09-10T14:49:39.882Z,28.52
2023-09-10T14:52:06.960Z,28.47
2023-09-10T14:54:33.674Z,28.41
2023-09-10T14:57:00.698Z,28.44
2023-09-10T14:59:27.663Z,28.36
2023-09-10T15:01:54.352Z,28.35
2023-09-10T15:04:21.264Z,28.31
2023-09-10T15:06:48.147Z,28.28
2023-09-10T15:09:15.036Z,28.30
2023-09-10T15:11:41.769Z,28.28
2023-09-10T15:14:08.435Z,28.30
2023-09-10T15:16:35.218Z,28.30
2023-09-10T15:19:01.938Z,28.21
2023-09-10T15:21:28.686Z,28.18
2023-09-10T15:23:55.349Z,28.18
2023-09-10T15:26:22.102Z,28.17
2023-09-10T15:28:48.896Z,28.05
2023-09-10T15:31:15.878Z,28.12
2023-09-10T15:33:43.448Z,28.12
2023-09-10T15:36:10.441Z,28.06
2023-09-10T15:38:37.128Z,28.00
2023-09-10T15:41:06.753Z,27.84
2023-09-10T15:43:33.508Z,27.88
2023-09-10T15:46:00.237Z,27.87
2023-09-10T15:48:27.082Z,27.85
2023-09-10T15:50:54.080Z,27.75
2023-09-10T15:53:21.017Z,27.71
2023-09-10T15:55:47.922Z,27.72
2023-09-10T15:58:14.652Z,27.67
2023-09-10T16:00:41.441Z,27.67
2023-09-10T16:03:08.381Z,27.61
2023-09-10T16:05:35.177Z,27.53
2023-09-10T16:08:02.001Z,27.49
2023-09-10T16:10:28.759Z,27.41
2023-09-10T16:12:55.564Z,27.31
2023-09-10T16:15:22.331Z,27.28
2023-09-10T16:17:49.597Z,27.21
2023-09-10T16:20:16.452Z,27.12
2023-09-10T16:22:43.243Z,27.02
2023-09-10T16:25:10.093Z,26.92
2023-09-10T16:27:36.759Z,26.78
2023-09-10T16:30:04.533Z,26.70
2023-09-10T16:32:31.275Z,26.64
2023-09-10T16:34:58.267Z,26.61
2023-09-10T16:37:24.989Z,26.54
2023-09-10T16:39:51.750Z,26.50
2023-09-10T16:42:18.402Z,26.31
2023-09-10T16:44:47.165Z,26.29
2023-09-10T16:47:13.974Z,26.26
2023-09-10T16:49:40.806Z,26.17
2023-09-10T16:52:07.518Z,26.06
2023-09-10T16:54:34.264Z,26.01
2023-09-10T16:57:01.013Z,25.95
2023-09-10T16:59:28.465Z,25.87
2023-09-10T17:01:55.177Z,25.77
2023-09-10T17:04:21.896Z,25.69
2023-09-10T17:06:50.733Z,25.61
2023-09-10T17:09:17.397Z,25.47
2023-09-10T17:11:44.145Z,25.43
2023-09-10T17:14:10.905Z,25.40
2023-09-10T17:16:37.627Z,25.26
2023-09-10T17:19:04.616Z,25.19
2023-09-10T17:21:31.331Z,25.13
2023-09-10T17:23:58.128Z,25.07
2023-09-10T17:26:25.003Z,25.06
2023-09-10T17:28:51.887Z,25.01
2023-09-10T17:31:18.648Z,24.95
2023-09-10T17:33:45.382Z,24.89
2023-09-10T17:36:12.778Z,24.84
2023-09-10T17:38:41.217Z,24.81
2023-09-10T17:41:08.038Z,24.76
2023-09-10T17:43:34.930Z,24.66
2023-09-10T17:46:01.663Z,24.63
2023-09-10T17:48:28.524Z,24.59
2023-09-10T17:50:57.996Z,24.53
2023-09-10T17:53:24.684Z,24.48
2023-09-10T17:55:51.404Z,24.38
2023-09-10T17:58:18.139Z,24.22
2023-09-10T18:00:44.849Z,24.14
2023-09-10T18:03:15.385Z,24.07
2023-09-10T18:05:42.627Z,24.01
2023-09-10T18:08:09.582Z,24.00
2023-09-10T18:10:36.394Z,24.01
2023-09-10T18:13:03.338Z,23.92
2023-09-10T18:15:30.279Z,23.89
2023-09-10T18:17:57.440Z,23.88
2023-09-10T18:20:26.561Z,23.89
2023-09-10T18:22:57.146Z,23.81
2023-09-10T18:25:23.895Z,23.78
2023-09-10T18:27:52.338Z,23.70
2023-09-10T18:30:19.112Z,23.68
2023-09-10T18:32:45.930Z,23.63
2023-09-10T18:35:12.705Z,23.62
2023-09-10T18:37:39.397Z,23.59
2023-09-10T18:40:07.502Z,23.56
2023-09-10T18:42:34.216Z,23.48
2023-09-10T18:45:00.923Z,23.38
2023-09-10T18:47:27.629Z,23.35
2023-09-10T18:49:54.407Z,23.24
2023-09-10T18:52:21.213Z,23.19
2023-09-10T18:54:48.008Z,23.15
2023-09-10T18:57:14.679Z,23.14
2023-09-10T18:59:42.394Z,23.10
2023-09-10T19:02:09.337Z,23.09
2023-09-10T19:04:37.747Z,23.02
2023-09-10T19:07:04.811Z,23.00
2023-09-10T19:09:31.552Z,22.98
2023-09-10T19:11:58.422Z,22.99
2023-09-10T19:14:25.540Z,22.92
2023-09-10T19:16:52.890Z,22.90
2023-09-10T19:19:19.616Z,22.88
2023-09-10T19:21:47.359Z,22.87
2023-09-10T19:24:14.742Z,22.83
2023-09-10T19:26:41.821Z,22.85
2023-09-10T19:29:08.844Z,22.82
2023-09-10T19:31:35.663Z,22.77
2023-09-10T19:34:04.294Z,22.79
2023-09-10T19:36:32.657Z,22.75
2023-09-10T19:38:59.453Z,22.66
2023-09-10T19:41:26.383Z,22.56
2023-09-10T19:43:53.066Z,22.41
2023-09-10T19:46:20.816Z,22.35
2023-09-10T19:48:49.077Z,22.36
2023-09-10T19:51:15.762Z,22.33
2023-09-10T19:53:42.752Z,22.39
2023-09-10T19:56:09.898Z,22.34
2023-09-10T19:58:36.689Z,22.30
2023-09-10T20:01:03.547Z,22.27
2023-09-10T20:03:31.095Z,22.20
2023-09-10T20:05:59.002Z,22.21
2023-09-10T20:08:26.875Z,22.25
2023-09-10T20:10:54.483Z,22.16
2023-09-10T20:13:21.320Z,22.12
2023-09-10T20:15:47.991Z,22.01
2023-09-10T20:18:14.730Z,21.99
2023-09-10T20:20:41.749Z,21.94
2023-09-10T20:23:08.651Z,21.98
2023-09-10T20:25:35.523Z,21.93
2023-09-10T20:28:02.228Z,21.91
2023-09-10T20:30:28.966Z,21.94
2023-09-10T20:32:55.919Z,21.88
2023-09-10T20:35:23.342Z,21.80
2023-09-10T20:37:50.085Z,21.73
2023-09-10T20:40:16.798Z,21.66
2023-09-10T20:42:43.497Z,21.70
2023-09-10T20:45:10.558Z,21.72
2023-09-10T20:47:39.928Z,21.67
2023-09-10T20:50:07.203Z,21.71
2023-09-10T20:52:33.891Z,21.70
2023-09-10T20:55:00.545Z,21.69
2023-09-10T20:57:27.291Z,21.59
2023-09-10T20:59:53.977Z,21.61
2023-09-10T21:02:20.690Z,21.63
2023-09-10T21:04:47.664Z,21.60
2023-09-10T21:07:14.624Z,21.58
2023-09-10T21:09:41.415Z,21.47
2023-09-10T21:12:08.431Z,21.50
2023-09-10T21:14:42.796Z,21.46
2023-09-10T21:17:11.046Z,21.43
2023-09-10T21:19:37.926Z,21.39
2023-09-10T21:22:05.040Z,21.36
2023-09-10T21:24:32.298Z,21.18
2023-09-10T21:27:02.409Z,21.16
2023-09-10T21:29:29.245Z,21.11
2023-09-10T21:31:56.117Z,21.05
2023-09-10T21:34:23.499Z,21.08
2023-09-10T21:36:51.170Z,21.09
2023-09-10T21:39:17.866Z,21.07
2023-09-10T21:41:44.679Z,21.04
2023-09-10T21:44:11.499Z,20.95
2023-09-10T21:46:38.202Z,20.92
2023-09-10T21:49:08.924Z,20.80
2023-09-10T21:51:36.776Z,20.79
2023-09-10T21:54:03.649Z,20.69
2023-09-10T21:56:35.239Z,20.61
2023-09-10T21:59:05.193Z,20.62
2023-09-10T22:01:31.938Z,20.57
2023-09-10T22:04:02.011Z,20.57
2023-09-10T22:06:28.812Z,20.58
2023-09-10T22:08:58.255Z,20.58
2023-09-10T22:11:25.400Z,20.50
2023-09-10T22:13:55.356Z,20.57
2023-09-10T22:16:22.118Z,20.51
2023-09-10T22:18:51.720Z,20.50
2023-09-10T22:21:21.243Z,20.46
2023-09-10T22:23:47.943Z,20.41
2023-09-10T22:26:14.882Z,20.33
2023-09-10T22:28:46.075Z,20.36
2023-09-10T22:31:15.323Z,20.25
2023-09-10T22:33:43.290Z,20.20
2023-09-10T22:36:23.409Z,20.16
2023-09-10T22:38:57.498Z,20.21
2023-09-10T22:41:24.180Z,20.15
2023-09-10T22:43:55.611Z,20.16
2023-09-10T22:46:22.339Z,20.13
2023-09-10T22:48:49.222Z,20.03
2023-09-10T22:51:19.145Z,19.99
2023-09-10T22:53:47.621Z,19.91
2023-09-10T22:56:17.017Z,19.92
2023-09-10T22:58:43.691Z,19.88
2023-09-10T23:01:10.534Z,19.95
2023-09-10T23:03:37.545Z,19.91
2023-09-10T23:06:07.355Z,19.80
2023-09-10T23:08:37.344Z,19.79
2023-09-10T23:11:04.995Z,19.74
2023-09-10T23:13:36.149Z,19.62
2023-09-10T23:16:04.143Z,19.48
2023-09-10T23:18:31.171Z,19.55
2023-09-10T23:21:00.693Z,19.59
2023-09-10T23:23:27.637Z,19.59
2023-09-10T23:25:55.424Z,19.54
2023-09-10T23:28:22.432Z,19.49
2023-09-10T23:30:49.331Z,19.58
2023-09-10T23:33:16.087Z,19.66
2023-09-10T23:35:42.880Z,19.71
2023-09-10T23:38:10.010Z,19.68
2023-09-10T23:40:38.732Z,19.74
2023-09-10T23:43:08.411Z,19.77
2023-09-10T23:45:35.049Z,19.73
2023-09-10T23:48:04.996Z,19.71
2023-09-10T23:50:31.960Z,19.64
2023-09-10T23:52:58.665Z,19.58
2023-09-10T23:55:25.332Z,19.53
2023-09-10T23:57:54.860Z,19.55
